Time;durP1;ratioP1;P1;durP2;ratioP2;P2;SDS_P1;SDS_P2;PMS_P1;PMS_P2;Temp;Humidity;BMP_temperature;BMP_pressure;BME280_temperature;BME280_humidity;BME280_pressure;Samples;Min_cycle;Max_cycle;Signal;HPM_P1;HPM_P2
2023/09/21 00:01:38;;;;;;;;;7.40;7.20;;;;;21.71;38.56;99217.63;5031291;28;8861;-72
2023/09/21 00:04:07;;;;;;;;;8.60;8.60;;;;;21.70;38.54;99218.56;5050337;28;8915;-71
2023/09/21 00:06:38;;;;;;;;;8.00;8.00;;;;;21.76;38.42;99217.28;5048886;28;8841;-71
2023/09/21 00:09:08;;;;;;;;;9.80;9.00;;;;;21.82;38.50;99208.78;5031514;28;8856;-71
2023/09/21 00:11:40;;;;;;;;;8.20;7.20;;;;;21.87;38.33;99209.31;5050069;28;8849;-72
2023/09/21 00:14:09;;;;;;;;;8.40;8.40;;;;;21.92;38.36;99219.66;5050229;28;8861;-70
2023/09/21 00:16:40;;;;;;;;;6.80;6.80;;;;;21.88;38.56;99208.34;5049893;28;8875;-72
2023/09/21 00:19:10;;;;;;;;;7.00;7.00;;;;;21.90;38.66;99203.75;5049640;28;8853;-71
2023/09/21 00:21:40;;;;;;;;;8.40;7.20;;;;;21.91;38.62;99204.59;5050104;28;9606;-71
2023/09/21 00:24:12;;;;;;;;;6.40;6.20;;;;;21.89;38.95;99198.50;5048636;28;8861;-71
2023/09/21 00:26:40;;;;;;;;;4.40;4.40;;;;;21.86;38.76;99198.72;5031980;28;8896;-71
2023/09/21 00:29:10;;;;;;;;;8.00;7.20;;;;;21.84;38.77;99197.03;5065467;28;8882;-70
2023/09/21 00:31:39;;;;;;;;;4.60;4.00;;;;;21.89;38.51;99196.66;5015019;28;8872;-71
2023/09/21 00:34:11;;;;;;;;;5.40;5.00;;;;;21.84;38.70;99201.50;5065194;28;8853;-71
2023/09/21 00:36:45;;;;;;;;;5.20;5.20;;;;;21.81;38.48;99199.91;5049751;28;8849;-72
2023/09/21 00:39:14;;;;;;;;;6.80;6.20;;;;;21.82;38.90;99201.63;5048257;28;8884;-73
2023/09/21 00:41:43;;;;;;;;;5.00;5.00;;;;;21.80;38.53;99206.22;5046906;28;8865;-70
2023/09/21 00:44:13;;;;;;;;;4.00;4.00;;;;;21.86;38.39;99198.72;5048689;28;8849;-70
2023/09/21 00:46:41;;;;;;;;;8.20;7.20;;;;;21.93;38.57;99202.66;5049638;28;9032;-71
2023/09/21 00:49:13;;;;;;;;;5.80;5.40;;;;;21.96;38.52;99205.97;5048475;28;8825;-72
2023/09/21 00:51:45;;;;;;;;;5.00;5.00;;;;;22.02;38.33;99201.97;5049633;28;8861;-72
2023/09/21 00:54:15;;;;;;;;;5.00;4.00;;;;;22.02;38.88;99202.81;5049555;28;8861;-71
2023/09/21 00:56:44;;;;;;;;;6.00;6.00;;;;;22.06;38.69;99195.41;5048344;28;8899;-71
2023/09/21 00:59:15;;;;;;;;;7.00;5.40;;;;;22.06;38.71;99192.75;5031584;28;8853;-71
2023/09/21 01:01:44;;;;;;;;;5.20;5.20;;;;;22.10;38.70;99188.88;5048087;28;9676;-71
2023/09/21 01:04:14;;;;;;;;;5.40;5.40;;;;;22.11;38.53;99177.19;5048151;28;8861;-70
2023/09/21 01:06:45;;;;;;;;;5.00;5.00;;;;;22.10;38.92;99185.34;5049688;28;8857;-73
2023/09/21 01:09:17;;;;;;;;;6.60;6.60;;;;;22.12;38.89;99172.69;5049527;28;8860;-74
2023/09/21 01:11:48;;;;;;;;;3.00;3.00;;;;;22.08;39.00;99163.19;5049065;28;8856;-71
2023/09/21 01:14:17;;;;;;;;;6.60;6.00;;;;;22.00;39.10;99161.94;5046601;28;8865;-71
2023/09/21 01:16:46;;;;;;;;;6.00;6.00;;;;;21.98;38.98;99157.69;5064442;28;8864;-70
2023/09/21 01:19:16;;;;;;;;;3.20;3.20;;;;;21.99;39.06;99168.28;5047725;28;8889;-72
2023/09/21 01:21:51;;;;;;;;;6.40;5.80;;;;;21.99;38.81;99167.41;5034437;28;8957;-70
2023/09/21 01:24:23;;;;;;;;;7.20;7.20;;;;;21.97;38.97;99169.34;5044218;28;8859;-71
2023/09/21 01:26:52;;;;;;;;;9.60;8.80;;;;;21.90;38.96;99162.72;5044235;28;8897;-71
2023/09/21 01:29:21;;;;;;;;;8.00;6.80;;;;;21.93;39.01;99162.50;5028926;28;8840;-70
2023/09/21 01:31:50;;;;;;;;;6.20;6.20;;;;;21.92;38.85;99166.13;5045907;28;8837;-70
2023/09/21 01:34:19;;;;;;;;;6.40;6.40;;;;;21.89;38.87;99163.72;5047088;28;8899;-71
2023/09/21 01:36:47;;;;;;;;;6.40;6.40;;;;;21.88;38.93;99165.53;5047177;28;8869;-71
2023/09/21 01:39:16;;;;;;;;;7.00;7.00;;;;;21.86;39.03;99155.91;5047424;28;8849;-73
2023/09/21 01:41:49;;;;;;;;;6.00;6.00;;;;;21.92;39.11;99155.44;5047284;28;8873;-71
2023/09/21 01:44:19;;;;;;;;;8.80;7.00;;;;;21.94;38.77;99156.22;5046907;28;8987;-71
2023/09/21 01:46:48;;;;;;;;;9.60;6.60;;;;;21.98;38.90;99149.66;5046093;28;9592;-70
2023/09/21 01:49:17;;;;;;;;;7.00;7.00;;;;;21.99;38.92;99156.69;5030386;28;8899;-70
2023/09/21 01:51:46;;;;;;;;;10.60;8.60;;;;;21.96;38.82;99159.63;5030279;28;8891;-70
2023/09/21 01:54:17;;;;;;;;;8.00;7.20;;;;;22.00;38.93;99153.91;5046020;28;8911;-71
2023/09/21 01:56:46;;;;;;;;;9.40;8.80;;;;;22.03;39.40;99156.38;5046980;28;9626;-70
2023/09/21 01:59:17;;;;;;;;;7.80;7.80;;;;;22.01;40.00;99155.63;5064057;28;8987;-71
2023/09/21 02:01:48;;;;;;;;;13.00;12.80;;;;;21.99;40.45;99154.03;5049195;28;8848;-70
2023/09/21 02:04:18;;;;;;;;;15.60;15.00;;;;;21.98;40.76;99145.16;5047751;28;9632;-71
2023/09/21 02:06:47;;;;;;;;;11.00;10.60;;;;;21.92;40.38;99144.72;5065986;28;8848;-72
2023/09/21 02:09:16;;;;;;;;;12.40;11.60;;;;;21.85;40.33;99141.69;5065475;28;8906;-73
2023/09/21 02:11:47;;;;;;;;;12.20;11.40;;;;;21.65;40.05;99135.13;5065620;28;8891;-71
2023/09/21 02:14:17;;;;;;;;;12.20;11.80;;;;;21.39;40.60;99137.88;5065447;28;8856;-71
2023/09/21 02:16:48;;;;;;;;;10.80;10.80;;;;;21.38;40.41;99136.16;5065441;28;8859;-72
2023/09/21 02:19:18;;;;;;;;;10.20;10.00;;;;;21.36;40.76;99138.06;4998787;28;8855;-71
2023/09/21 02:21:47;;;;;;;;;13.60;12.60;;;;;21.37;40.38;99130.91;5015871;28;8981;-71
2023/09/21 02:24:15;;;;;;;;;9.20;9.20;;;;;21.29;40.36;99131.47;5065558;28;8851;-72
2023/09/21 02:26:45;;;;;;;;;11.60;11.00;;;;;21.28;40.60;99135.13;5065292;28;8875;-71
2023/09/21 02:29:14;;;;;;;;;11.20;10.20;;;;;21.29;40.63;99131.47;5065294;28;8859;-72
2023/09/21 02:31:45;;;;;;;;;13.00;12.60;;;;;21.31;40.82;99126.84;5065715;28;8964;-75
2023/09/21 02:34:16;;;;;;;;;12.40;12.40;;;;;21.30;40.38;99122.50;5046591;28;8841;-72
2023/09/21 02:36:46;;;;;;;;;9.80;9.80;;;;;21.26;40.50;99123.69;5048410;28;9587;-73
2023/09/21 02:39:17;;;;;;;;;11.40;11.00;;;;;21.25;40.90;99129.97;5029548;28;8863;-71
2023/09/21 02:41:45;;;;;;;;;10.40;10.40;;;;;21.30;40.59;99122.50;5030189;28;8946;-71
2023/09/21 02:44:15;;;;;;;;;13.40;11.40;;;;;21.29;40.73;99120.75;5050142;28;8926;-71
2023/09/21 02:46:45;;;;;;;;;8.00;7.20;;;;;21.30;40.45;99117.16;5068960;28;8998;-70
2023/09/21 02:49:14;;;;;;;;;9.20;9.20;;;;;21.31;40.58;99115.31;5018511;28;9601;-69
2023/09/21 02:51:44;;;;;;;;;12.60;12.00;;;;;21.25;40.87;99113.94;5069131;28;9613;-71
2023/09/21 02:54:13;;;;;;;;;8.60;8.60;;;;;21.24;41.06;99113.09;5069418;28;8963;-70
2023/09/21 02:56:43;;;;;;;;;10.80;9.80;;;;;21.23;40.86;99115.88;5052688;28;8875;-70
2023/09/21 02:59:13;;;;;;;;;9.40;9.40;;;;;21.20;40.95;99108.94;5052642;28;8879;-70
2023/09/21 03:01:43;;;;;;;;;10.40;9.00;;;;;21.14;41.38;99101.34;4987005;28;8848;-73
2023/09/21 03:04:13;;;;;;;;;8.00;7.60;;;;;21.08;41.74;99104.47;5052569;28;8844;-71
2023/09/21 03:06:43;;;;;;;;;10.40;8.60;;;;;21.03;41.54;99107.47;5067537;28;8852;-71
2023/09/21 03:09:14;;;;;;;;;8.60;8.00;;;;;20.95;41.86;99099.13;5068680;28;8827;-70
2023/09/21 03:11:45;;;;;;;;;9.40;9.40;;;;;20.85;42.29;99098.06;5052015;28;8833;-70
2023/09/21 03:14:15;;;;;;;;;11.80;10.80;;;;;20.78;42.62;99096.78;5051770;28;8879;-73
2023/09/21 03:16:44;;;;;;;;;11.00;11.00;;;;;20.67;43.35;99100.19;5068665;28;8903;-72
2023/09/21 03:19:15;;;;;;;;;9.20;7.20;;;;;20.68;43.29;99093.91;5050208;28;9668;-72
2023/09/21 03:21:44;;;;;;;;;12.80;11.80;;;;;20.69;42.98;99095.63;5049935;28;8889;-71
2023/09/21 03:24:13;;;;;;;;;11.60;10.60;;;;;20.64;43.33;99093.28;5044471;28;8855;-73
2023/09/21 03:26:42;;;;;;;;;11.60;10.80;;;;;20.62;43.83;99089.84;5062978;28;9768;-70
2023/09/21 03:29:12;;;;;;;;;12.60;11.20;;;;;20.57;44.02;99083.13;5031351;28;8852;-72
2023/09/21 03:31:42;;;;;;;;;12.80;11.00;;;;;20.57;44.13;99083.97;5030010;28;8966;-71
2023/09/21 03:34:14;;;;;;;;;15.20;15.20;;;;;20.55;44.16;99077.03;5063002;28;9605;-72
2023/09/21 03:36:43;;;;;;;;;18.80;18.20;;;;;20.59;43.74;99083.88;5045946;28;8883;-72
2023/09/21 03:39:11;;;;;;;;;11.60;11.60;;;;;20.62;43.80;99079.19;5053966;28;8868;-71
2023/09/21 03:41:40;;;;;;;;;11.00;11.00;;;;;20.59;44.11;99070.53;5050918;28;8849;-71
2023/09/21 03:44:10;;;;;;;;;9.20;9.20;;;;;20.60;44.45;99069.56;5066635;28;8849;-71
2023/09/21 03:46:38;;;;;;;;;13.60;12.00;;;;;20.58;44.40;99067.00;5032440;28;9635;-71
2023/09/21 03:49:08;;;;;;;;;15.00;14.20;;;;;20.55;44.67;99067.22;5034346;28;8851;-72
2023/09/21 03:51:42;;;;;;;;;12.20;12.00;;;;;20.61;44.63;99068.59;4997860;28;8958;-72
2023/09/21 03:54:11;;;;;;;;;11.80;11.80;;;;;20.58;44.94;99074.19;5044821;28;8839;-71
2023/09/21 03:56:39;;;;;;;;;15.40;14.00;;;;;20.65;44.40;99073.63;5029445;28;8878;-72
2023/09/21 03:59:10;;;;;;;;;19.60;19.20;;;;;20.71;44.37;99071.47;5030604;28;8894;-72
2023/09/21 04:01:40;;;;;;;;;13.60;13.60;;;;;20.67;44.79;99071.69;5030558;28;8859;-72
2023/09/21 04:04:17;;;;;;;;;16.60;12.80;;;;;20.65;44.76;99070.97;5061473;28;8860;-71
2023/09/21 04:06:48;;;;;;;;;16.40;16.20;;;;;20.70;45.22;99065.28;5037311;28;8843;-71
2023/09/21 04:09:18;;;;;;;;;15.20;14.60;;;;;20.75;44.89;99065.81;5045694;28;8874;-70
2023/09/21 04:11:47;;;;;;;;;13.40;11.80;;;;;20.85;44.88;99066.00;5045668;28;8867;-70
2023/09/21 04:14:16;;;;;;;;;17.00;15.80;;;;;20.95;45.05;99064.41;5029193;28;8844;-71
2023/09/21 04:16:46;;;;;;;;;14.60;14.00;;;;;21.00;44.62;99064.09;5012835;28;8878;-71
2023/09/21 04:19:15;;;;;;;;;12.60;12.60;;;;;21.03;44.71;99056.72;5037292;28;8838;-71
2023/09/21 04:21:46;;;;;;;;;12.00;11.80;;;;;21.05;44.79;99059.28;5065592;28;8882;-74
2023/09/21 04:24:18;;;;;;;;;7.40;7.40;;;;;20.93;45.63;99063.66;5044825;28;8855;-71
2023/09/21 04:26:47;;;;;;;;;54.00;43.75;;;;;20.73;45.99;99066.88;5029724;28;8899;-73
2023/09/21 04:29:16;;;;;;;;;20.20;20.00;;;;;20.74;46.13;99069.44;5044998;28;8975;-73
2023/09/21 04:31:45;;;;;;;;;17.00;15.80;;;;;20.85;45.86;99071.34;5030116;28;8864;-72
2023/09/21 04:34:15;;;;;;;;;13.20;12.80;;;;;20.96;45.85;99071.47;5044953;28;8867;-71
2023/09/21 04:36:43;;;;;;;;;15.00;15.00;;;;;21.03;45.37;99061.19;5028666;28;8860;-71
2023/09/21 04:39:14;;;;;;;;;14.00;13.60;;;;;21.06;45.36;99064.47;5043823;28;8882;-72
2023/09/21 04:41:45;;;;;;;;;70.67;59.00;;;;;21.14;45.07;99058.56;5074298;28;9773;-72
2023/09/21 04:44:16;;;;;;;;;41.75;36.00;;;;;21.11;44.99;99068.66;5068219;28;9149;-71
2023/09/21 04:46:45;;;;;;;;;16.00;14.40;;;;;21.18;44.89;99061.88;5068181;28;8870;-72
2023/09/21 04:49:15;;;;;;;;;14.60;12.80;;;;;21.18;45.11;99062.75;5067371;28;8853;-70
2023/09/21 04:51:43;;;;;;;;;16.80;13.80;;;;;21.21;45.24;99067.88;5050439;28;8968;-72
2023/09/21 04:54:13;;;;;;;;;15.00;13.40;;;;;21.26;45.08;99060.38;5069760;28;9045;-71
2023/09/21 04:56:42;;;;;;;;;17.60;16.60;;;;;21.28;45.13;99067.44;5053016;28;8891;-72
2023/09/21 04:59:14;;;;;;;;;18.20;17.40;;;;;21.31;45.02;99062.69;5048006;28;9011;-72
2023/09/21 05:01:43;;;;;;;;;18.60;16.40;;;;;21.37;45.13;99059.59;5050046;28;8846;-71
2023/09/21 05:04:13;;;;;;;;;19.00;18.40;;;;;21.43;44.56;99059.13;5067147;28;8862;-74
2023/09/21 05:06:42;;;;;;;;;20.00;18.80;;;;;21.45;44.87;99061.69;5066404;28;8970;-71
2023/09/21 05:09:12;;;;;;;;;17.80;17.80;;;;;21.48;44.82;99061.44;5033238;28;8931;-70
2023/09/21 05:11:41;;;;;;;;;19.00;18.00;;;;;21.50;44.67;99061.34;5082598;28;8870;-73
2023/09/21 05:14:12;;;;;;;;;20.00;17.80;;;;;21.50;45.14;99064.84;5046922;28;8829;-69
2023/09/21 05:16:43;;;;;;;;;16.80;16.80;;;;;21.56;45.04;99064.44;5048233;28;8861;-70
2023/09/21 05:19:12;;;;;;;;;14.60;14.60;;;;;21.57;44.62;99059.91;5048165;28;8998;-74
2023/09/21 05:21:41;;;;;;;;;16.60;16.60;;;;;21.59;44.58;99063.34;5016246;28;9547;-82
2023/09/21 05:24:10;;;;;;;;;19.00;19.00;;;;;21.61;44.91;99067.63;5066375;28;8849;-81
2023/09/21 05:26:38;;;;;;;;;25.20;25.20;;;;;21.65;44.67;99068.25;5034511;28;8857;-81
2023/09/21 05:29:08;;;;;;;;;21.40;20.60;;;;;21.59;45.00;99066.88;5082414;28;9004;-81
2023/09/21 05:31:37;;;;;;;;;21.20;18.20;;;;;21.61;44.96;99064.94;5076405;28;8837;-83
2023/09/21 05:34:08;;;;;;;;;20.60;20.40;;;;;21.63;45.25;99059.50;5051250;28;8849;-80
2023/09/21 05:36:37;;;;;;;;;16.60;15.60;;;;;21.57;45.18;99065.28;5049140;28;8855;-80
2023/09/21 05:39:08;;;;;;;;;17.60;16.80;;;;;21.56;45.17;99063.56;5050376;28;8845;-80
2023/09/21 05:41:37;;;;;;;;;22.00;21.40;;;;;21.58;45.45;99061.66;5049543;28;8861;-81
2023/09/21 05:44:06;;;;;;;;;18.20;17.00;;;;;21.64;45.55;99064.72;5066231;28;8830;-80
2023/09/21 05:46:35;;;;;;;;;20.00;18.00;;;;;21.68;45.42;99076.06;5044871;28;8877;-80
2023/09/21 05:49:04;;;;;;;;;24.80;24.80;;;;;21.75;45.46;99073.75;5054977;28;8844;-80
2023/09/21 05:51:35;;;;;;;;;19.80;19.80;;;;;21.78;45.26;99076.22;5055655;28;8856;-80
2023/09/21 05:54:05;;;;;;;;;21.60;19.40;;;;;21.76;45.02;99076.31;5049053;28;8836;-83
2023/09/21 05:56:34;;;;;;;;;21.20;19.80;;;;;21.80;45.33;99061.75;5028476;28;8950;-81
2023/09/21 05:59:04;;;;;;;;;19.40;18.80;;;;;21.87;45.11;99066.66;5028927;28;8860;-81
2023/09/21 06:01:32;;;;;;;;;17.80;17.00;;;;;21.89;45.30;99070.06;5041407;28;8852;-82
2023/09/21 06:04:02;;;;;;;;;16.20;14.80;;;;;21.90;45.41;99061.91;4997488;28;8861;-80
2023/09/21 06:06:33;;;;;;;;;17.60;16.60;;;;;21.94;45.15;99062.53;5048867;28;8852;-80
2023/09/21 06:09:05;;;;;;;;;18.80;17.40;;;;;21.96;45.38;99066.81;5056364;28;8881;-79
2023/09/21 06:11:34;;;;;;;;;15.00;15.00;;;;;21.99;45.20;99065.69;5053669;28;8869;-78
2023/09/21 06:14:04;;;;;;;;;19.20;19.20;;;;;22.03;45.26;99065.38;5052158;28;9415;-79
2023/09/21 06:16:33;;;;;;;;;17.20;17.00;;;;;22.10;45.25;99071.09;5052417;28;8864;-81
2023/09/21 06:19:02;;;;;;;;;19.60;18.60;;;;;22.11;45.33;99074.59;5064780;28;8868;-81
2023/09/21 06:21:31;;;;;;;;;18.60;18.40;;;;;22.00;45.83;99067.41;5031885;28;8851;-83
2023/09/21 06:24:00;;;;;;;;;22.20;22.20;;;;;22.13;45.59;99067.34;5047496;28;8836;-81
2023/09/21 06:26:31;;;;;;;;;24.40;24.40;;;;;22.16;45.37;99067.09;5061943;28;8861;-82
2023/09/21 06:29:00;;;;;;;;;23.20;21.40;;;;;22.24;45.41;99056.66;5013784;28;8861;-83
2023/09/21 06:31:29;;;;;;;;;26.40;25.00;;;;;22.10;45.86;99063.06;5012515;28;8980;-81
2023/09/21 06:33:58;;;;;;;;;28.00;26.80;;;;;22.11;45.89;99055.88;4980897;28;8879;-82
2023/09/21 06:36:29;;;;;;;;;23.40;23.40;;;;;22.00;45.86;99057.56;5047991;28;8958;-82
2023/09/21 06:38:58;;;;;;;;;15.40;14.40;;;;;21.86;45.97;99057.75;5046755;28;8861;-82
2023/09/21 06:41:30;;;;;;;;;28.00;27.40;;;;;22.10;45.69;99046.16;5051428;28;8888;-82
2023/09/21 06:44:01;;;;;;;;;32.75;30.50;;;;;22.07;46.14;99049.94;5019014;28;8858;-82
2023/09/21 06:46:29;;;;;;;;;24.80;22.80;;;;;22.21;45.29;99054.22;5057399;28;9670;-80
2023/09/21 06:49:01;;;;;;;;;30.75;29.00;;;;;22.40;44.96;99041.09;5068264;28;8961;-81
2023/09/21 06:51:38;;;;;;;;;26.40;23.60;;;;;22.31;45.14;99051.69;5094423;28;8847;-70
2023/09/21 06:54:07;;;;;;;;;26.80;21.80;;;;;22.50;44.94;99053.78;5074891;28;8873;-69
2023/09/21 06:56:37;;;;;;;;;26.00;22.80;;;;;22.72;44.65;99059.16;5084666;28;8942;-71
2023/09/21 06:59:06;;;;;;;;;22.40;21.40;;;;;22.83;44.18;99055.63;5084834;28;8884;-70
2023/09/21 07:01:35;;;;;;;;;23.80;23.60;;;;;22.92;44.04;99054.03;5084932;28;8865;-71
2023/09/21 07:04:05;;;;;;;;;19.00;18.80;;;;;23.01;43.61;99064.03;5067939;28;8858;-70
2023/09/21 07:06:35;;;;;;;;;21.80;21.80;;;;;22.99;43.87;99064.16;5084935;28;9016;-70
2023/09/21 07:09:04;;;;;;;;;21.40;20.20;;;;;22.92;43.95;99064.75;5100841;28;8867;-69
2023/09/21 07:11:33;;;;;;;;;17.00;16.20;;;;;22.97;43.75;99073.31;5105315;28;8864;-70
2023/09/21 07:14:05;;;;;;;;;23.00;21.20;;;;;23.29;43.05;99077.88;5105329;28;8922;-70
2023/09/21 07:16:34;;;;;;;;;22.80;21.60;;;;;23.28;43.22;99066.31;5029208;28;9612;-72
2023/09/21 07:19:03;;;;;;;;;20.40;18.20;;;;;23.41;42.65;99074.19;5084909;28;8902;-69
2023/09/21 07:21:32;;;;;;;;;23.40;22.80;;;;;23.49;42.27;99074.44;5050921;28;8861;-71
2023/09/21 07:24:01;;;;;;;;;24.20;23.20;;;;;23.60;42.24;99078.91;5047836;28;8872;-69
2023/09/21 07:26:31;;;;;;;;;28.00;27.40;;;;;23.52;42.49;99086.75;5028387;28;8865;-68
2023/09/21 07:29:04;;;;;;;;;24.20;23.60;;;;;23.61;42.37;99087.84;5047349;28;8880;-71
2023/09/21 07:31:35;;;;;;;;;20.00;20.00;;;;;23.88;42.30;99090.03;5050650;28;8864;-70
2023/09/21 07:34:06;;;;;;;;;25.00;23.00;;;;;24.01;41.52;99100.59;5050740;28;8837;-72
2023/09/21 07:36:35;;;;;;;;;18.00;17.60;;;;;24.11;41.05;99098.81;5031545;28;8861;-68
2023/09/21 07:39:07;;;;;;;;;18.60;18.60;;;;;24.29;41.20;99099.13;5050480;28;8911;-70
2023/09/21 07:41:40;;;;;;;;;23.00;22.60;;;;;24.39;40.60;99101.88;5050648;28;8939;-70
2023/09/21 07:44:10;;;;;;;;;27.60;25.80;;;;;24.21;41.32;99101.63;5050542;28;8868;-70
2023/09/21 07:46:40;;;;;;;;;18.60;18.40;;;;;24.35;40.76;99109.34;5014831;28;8868;-71
2023/09/21 07:49:09;;;;;;;;;21.00;19.80;;;;;24.19;41.31;99104.44;5050646;28;8887;-69
2023/09/21 07:51:37;;;;;;;;;20.00;18.80;;;;;24.21;41.27;99102.47;5050220;28;8868;-72
2023/09/21 07:54:07;;;;;;;;;24.40;22.20;;;;;24.38;40.91;99105.53;5050382;28;8962;-71
2023/09/21 07:56:37;;;;;;;;;22.80;21.80;;;;;24.52;40.70;99110.59;5048077;28;8849;-70
2023/09/21 07:59:10;;;;;;;;;19.00;18.40;;;;;24.66;40.23;99114.75;5050597;28;9016;-70
2023/09/21 08:01:40;;;;;;;;;21.60;20.20;;;;;24.76;40.48;99110.31;5050244;28;9011;-72
2023/09/21 08:04:09;;;;;;;;;20.60;19.40;;;;;24.88;39.91;99114.63;5050011;28;8873;-69
2023/09/21 08:06:38;;;;;;;;;21.20;19.00;;;;;24.78;40.32;99108.34;5048805;28;8891;-71
2023/09/21 08:09:08;;;;;;;;;20.20;18.80;;;;;24.54;40.69;99112.16;5050135;28;8903;-71
2023/09/21 08:11:54;;;;;;;;;26.40;25.40;;;;;24.29;41.20;99113.41;5049957;28;8984;-70
2023/09/21 08:14:23;;;;;;;;;21.40;20.80;;;;;24.14;41.46;99112.03;5050123;28;8861;-68
2023/09/21 08:16:54;;;;;;;;;24.00;23.60;;;;;24.36;41.06;99113.75;4999532;28;9405;-68
2023/09/21 08:19:23;;;;;;;;;23.60;22.60;;;;;24.52;40.82;99108.75;5049833;28;8880;-72
2023/09/21 08:21:52;;;;;;;;;22.00;21.20;;;;;24.54;40.87;99109.47;5048517;28;8864;-71
2023/09/21 08:24:21;;;;;;;;;20.80;20.80;;;;;24.72;40.48;99115.09;5049777;28;8841;-71
2023/09/21 08:26:50;;;;;;;;;23.40;20.80;;;;;25.01;39.70;99109.00;5014499;28;8849;-70
2023/09/21 08:29:21;;;;;;;;;23.80;22.60;;;;;25.02;39.42;99109.84;5049807;28;8857;-70
2023/09/21 08:31:50;;;;;;;;;23.00;21.00;;;;;25.19;39.46;99109.22;5049811;28;8864;-70
2023/09/21 08:34:21;;;;;;;;;21.80;21.00;;;;;25.27;39.20;99112.06;5050099;28;9670;-70
2023/09/21 08:36:49;;;;;;;;;26.20;23.60;;;;;25.26;38.81;99104.97;5014666;28;8841;-70
2023/09/21 08:39:18;;;;;;;;;25.60;22.80;;;;;25.38;38.76;99102.22;5048626;28;8938;-70
2023/09/21 08:41:49;;;;;;;;;25.80;23.80;;;;;25.50;39.10;99107.34;5049273;28;9019;-69
2023/09/21 08:44:18;;;;;;;;;22.40;21.20;;;;;25.63;39.11;99100.84;5049570;28;9708;-72
2023/09/21 08:46:48;;;;;;;;;17.80;16.60;;;;;25.63;38.43;99093.63;5046932;28;8899;-70
2023/09/21 08:49:18;;;;;;;;;20.20;19.60;;;;;25.71;39.18;99091.06;5049024;28;8880;-71
2023/09/21 08:51:49;;;;;;;;;16.00;15.40;;;;;25.70;38.60;99092.06;5049091;28;9676;-69
2023/09/21 08:54:19;;;;;;;;;18.40;16.40;;;;;25.66;39.50;99087.97;5049470;28;8833;-69
2023/09/21 08:56:48;;;;;;;;;17.20;16.80;;;;;25.83;40.37;99090.94;5049209;28;8875;-70
2023/09/21 08:59:21;;;;;;;;;19.60;18.80;;;;;25.92;40.46;99092.81;5049129;28;8952;-71
2023/09/21 09:01:49;;;;;;;;;21.20;20.40;;;;;25.97;39.86;99097.78;5048826;28;8958;-68
2023/09/21 09:04:20;;;;;;;;;15.60;15.60;;;;;25.97;37.80;99097.78;5014279;28;8892;-71
2023/09/21 09:06:51;;;;;;;;;19.80;19.60;;;;;26.03;38.34;99092.66;5047428;28;8932;-70
2023/09/21 09:09:20;;;;;;;;;15.80;15.60;;;;;26.02;38.77;99095.47;5048669;28;8861;-69
2023/09/21 09:11:50;;;;;;;;;20.20;19.40;;;;;26.02;38.92;99092.78;5048759;28;8877;-70
2023/09/21 09:14:20;;;;;;;;;19.40;18.00;;;;;25.93;39.11;99091.81;5048886;28;8861;-70
2023/09/21 09:16:49;;;;;;;;;15.80;13.60;;;;;25.94;39.15;99087.28;5048621;28;8984;-70
2023/09/21 09:19:20;;;;;;;;;17.80;16.80;;;;;25.81;39.31;99082.97;5048861;28;8865;-71
2023/09/21 09:21:52;;;;;;;;;23.80;22.60;;;;;25.79;39.11;99082.28;5048417;28;8845;-71
2023/09/21 09:24:22;;;;;;;;;19.60;18.40;;;;;25.63;39.47;99088.22;5047312;28;8863;-71
2023/09/21 09:26:51;;;;;;;;;20.80;19.00;;;;;25.55;39.92;99089.91;5047122;28;8849;-70
2023/09/21 09:29:22;;;;;;;;;23.00;20.40;;;;;25.41;39.71;99092.03;5049149;28;8841;-69
2023/09/21 09:31:50;;;;;;;;;20.20;19.80;;;;;25.39;40.20;99087.78;5048205;28;8900;-71
2023/09/21 09:34:19;;;;;;;;;21.40;20.20;;;;;25.40;40.30;99087.66;5048670;28;8829;-70
2023/09/21 09:36:50;;;;;;;;;19.80;19.80;;;;;25.47;39.84;99085.22;5048236;28;8853;-69
2023/09/21 09:39:23;;;;;;;;;19.20;18.20;;;;;25.52;39.79;99080.28;5048239;28;8861;-70
2023/09/21 09:41:53;;;;;;;;;19.40;19.40;;;;;25.58;40.00;99085.09;5047131;28;8853;-69
2023/09/21 09:44:23;;;;;;;;;21.20;21.20;;;;;25.63;39.72;99074.78;5048454;28;9076;-69
2023/09/21 09:46:56;;;;;;;;;21.60;21.60;;;;;25.69;39.62;99074.19;5048581;28;8833;-71
2023/09/21 09:49:29;;;;;;;;;20.60;20.60;;;;;25.71;39.44;99068.69;5045791;28;9642;-70
2023/09/21 09:52:02;;;;;;;;;20.00;19.80;;;;;25.84;39.06;99071.09;5047321;28;8998;-71
2023/09/21 09:54:35;;;;;;;;;21.60;21.60;;;;;25.83;38.95;99064.88;5048426;28;8860;-70
2023/09/21 09:57:11;;;;;;;;;18.60;17.60;;;;;25.84;39.01;99052.25;5048051;28;8869;-70
2023/09/21 09:59:41;;;;;;;;;25.40;20.80;;;;;25.76;39.62;99050.28;5048124;28;8830;-70
2023/09/21 10:02:12;;;;;;;;;22.00;20.00;;;;;25.68;39.99;99044.72;5047956;28;8877;-71
2023/09/21 10:04:43;;;;;;;;;21.80;21.80;;;;;25.48;39.77;99039.34;5029600;28;8861;-69
2023/09/21 10:07:15;;;;;;;;;24.60;21.00;;;;;25.52;39.23;99031.84;5048024;28;8954;-70
2023/09/21 10:09:46;;;;;;;;;19.00;17.60;;;;;25.47;39.73;99034.09;5047733;28;8944;-71
2023/09/21 10:12:19;;;;;;;;;16.00;16.00;;;;;25.38;39.48;99024.19;5012634;28;10110;-71
2023/09/21 10:14:50;;;;;;;;;18.60;17.00;;;;;25.37;39.72;99020.66;5047996;28;8868;-70
2023/09/21 10:17:27;;;;;;;;;18.00;18.00;;;;;25.44;39.08;99027.19;5046674;28;9782;-71
2023/09/21 10:20:14;;;;;;;;;17.60;17.40;;;;;25.56;38.82;99024.34;5047871;28;8864;-72
2023/09/21 10:22:44;;;;;;;;;21.40;19.60;;;;;25.43;38.68;99017.38;5047894;28;9011;-69
2023/09/21 10:25:15;;;;;;;;;19.80;17.40;;;;;25.28;39.22;99022.31;5012663;28;8876;-70
2023/09/21 10:27:46;;;;;;;;;18.20;17.20;;;;;25.44;38.91;99011.03;5047719;28;8881;-69
2023/09/21 10:30:18;;;;;;;;;22.40;20.80;;;;;25.40;38.91;99015.00;5047686;28;9023;-72
2023/09/21 10:32:49;;;;;;;;;20.60;17.80;;;;;25.34;38.98;99010.19;5047919;28;8880;-70
2023/09/21 10:35:45;;;;;;;;;18.40;17.40;;;;;25.43;39.33;99008.47;5047960;28;8864;-71
2023/09/21 10:38:15;;;;;;;;;20.40;18.60;;;;;25.46;38.70;99006.34;5047991;28;8861;-70
2023/09/21 10:40:46;;;;;;;;;20.40;17.40;;;;;25.45;38.03;98985.81;5047948;28;8901;-70
2023/09/21 10:43:46;;;;;;;;;16.60;16.20;;;;;25.30;38.51;98988.06;5028712;28;8953;-70
2023/09/21 10:46:21;;;;;;;;;16.40;16.40;;;;;25.43;38.03;98978.88;5048548;28;8853;-69
2023/09/21 10:48:58;;;;;;;;;16.20;16.20;;;;;25.39;37.87;98967.53;5047964;28;8861;-70
2023/09/21 10:51:28;;;;;;;;;13.40;13.40;;;;;25.40;38.05;98963.03;5047548;28;8864;-69
2023/09/21 10:53:59;;;;;;;;;15.00;14.80;;;;;25.53;37.70;98958.22;5047528;28;8869;-69
2023/09/21 10:56:29;;;;;;;;;15.00;13.80;;;;;25.59;37.25;98957.63;5047385;28;8930;-71
2023/09/21 10:58:58;;;;;;;;;12.20;12.20;;;;;25.77;36.02;98954.19;5012783;28;8861;-71
2023/09/21 11:01:28;;;;;;;;;18.00;15.80;;;;;25.85;36.59;98957.00;5047555;28;8841;-70
2023/09/21 11:03:58;;;;;;;;;11.00;11.00;;;;;26.05;36.52;98949.78;5048439;28;8853;-71
2023/09/21 11:06:29;;;;;;;;;15.80;14.60;;;;;26.20;36.71;98952.84;5016610;28;8975;-69
2023/09/21 11:08:59;;;;;;;;;13.00;13.00;;;;;26.16;37.11;98946.91;5051205;28;8983;-70
2023/09/21 11:11:29;;;;;;;;;18.00;16.20;;;;;26.33;36.03;98941.75;5051092;28;9981;-72
2023/09/21 11:13:59;;;;;;;;;16.80;15.80;;;;;26.49;35.87;98933.88;5051245;28;8908;-70
2023/09/21 11:16:28;;;;;;;;;14.20;12.60;;;;;26.56;35.71;98929.59;5016174;28;8857;-70
2023/09/21 11:18:56;;;;;;;;;14.80;14.20;;;;;26.65;35.81;98934.06;5051085;28;8842;-70
2023/09/21 11:21:26;;;;;;;;;18.00;16.40;;;;;26.63;35.42;98929.84;5051081;28;9586;-69
2023/09/21 11:23:55;;;;;;;;;15.60;14.80;;;;;26.83;35.13;98928.72;5051447;28;9646;-69
2023/09/21 11:26:26;;;;;;;;;16.80;16.80;;;;;26.92;35.33;98923.41;5050693;28;8875;-70
2023/09/21 11:28:58;;;;;;;;;17.60;17.00;;;;;26.99;34.63;98921.81;5017016;28;9014;-70
2023/09/21 11:31:28;;;;;;;;;11.20;11.20;;;;;27.12;33.83;98910.63;5050703;28;9694;-71
2023/09/21 11:34:05;;;;;;;;;13.80;13.00;;;;;27.19;33.30;98912.59;5050990;28;8892;-71
2023/09/21 11:36:34;;;;;;;;;15.60;15.00;;;;;27.27;33.29;98910.94;5050647;28;8938;-72
2023/09/21 11:39:07;;;;;;;;;12.80;12.80;;;;;27.50;33.00;98904.06;5047668;28;8891;-70
2023/09/21 11:41:39;;;;;;;;;14.80;14.00;;;;;27.61;32.96;98895.75;5048000;28;9080;-71
2023/09/21 11:44:09;;;;;;;;;15.60;15.60;;;;;27.82;33.04;98897.22;5048130;28;8866;-71